Time;durP1;ratioP1;P1;durP2;ratioP2;P2;SDS_P1;SDS_P2;PMS_P1;PMS_P2;Temp;Humidity;BMP_temperature;BMP_pressure;BME280_temperature;BME280_humidity;BME280_pressure;Samples;Min_cycle;Max_cycle;Signal;HPM_P1;HPM_P2
2022/08/06 00:00:33;;;;;;;;;;;;;;;18.26;100.00;99364.34;1723791;83;20083;-76
2022/08/06 00:03:04;;;;;;;;;;;;;;;18.28;100.00;99358.42;1727837;83;20083;-76
2022/08/06 00:05:28;;;;;;;;;;;;;;;18.28;100.00;99356.44;1727267;82;20099;-76
2022/08/06 00:07:58;;;;;;;;;;;;;;;18.28;100.00;99366.17;1730913;83;20494;-76
2022/08/06 00:10:27;;;;;;;;;;;;;;;18.28;100.00;99368.95;1727741;82;21355;-77
2022/08/06 00:13:00;;;;;;;;;;;;;;;18.29;100.00;99372.53;1722653;82;20083;-76
2022/08/06 00:15:28;;;;;;;;;;;;;;;18.28;100.00;99373.11;1727219;83;20211;-76
2022/08/06 00:18:00;;;;;;;;;;;;;;;18.29;100.00;99371.14;1730578;83;20435;-76
2022/08/06 00:20:25;;;;;;;;;;;;;;;18.29;100.00;99369.16;1727354;83;20123;-76
2022/08/06 00:22:57;;;;;;;;;;;;;;;18.29;100.00;99371.14;1730985;83;21191;-76
2022/08/06 00:25:23;;;;;;;;;;;;;;;18.27;100.00;99372.90;1727775;83;20422;-76
2022/08/06 00:27:51;;;;;;;;;;;;;;;18.29;100.00;99377.50;1728068;82;20087;-76
2022/08/06 00:30:18;;;;;;;;;;;;;;;18.28;100.00;99377.87;1727804;83;20469;-76
2022/08/06 00:32:47;;;;;;;;;;;;;;;18.25;100.00;99380.00;1730762;83;20111;-76
2022/08/06 00:35:24;;;;;;;;;;;;;;;18.24;100.00;99372.84;1731122;83;20422;-76
2022/08/06 00:37:55;;;;;;;;;;;;;;;18.23;100.00;99383.73;1726419;83;20114;-76
2022/08/06 00:40:27;;;;;;;;;;;;;;;18.21;100.00;99387.47;1727617;82;20410;-77
2022/08/06 00:42:58;;;;;;;;;;;;;;;18.20;100.00;99381.70;1727770;83;20406;-77
2022/08/06 00:45:38;;;;;;;;;;;;;;;18.18;100.00;99377.91;1731067;83;20103;-77
2022/08/06 00:48:02;;;;;;;;;;;;;;;18.17;100.00;99385.22;1726765;83;20535;-77
2022/08/06 00:50:37;;;;;;;;;;;;;;;18.16;100.00;99380.24;1727789;83;20227;-77
2022/08/06 00:53:03;;;;;;;;;;;;;;;18.14;100.00;99378.42;1727289;82;20476;-76
2022/08/06 00:55:35;;;;;;;;;;;;;;;18.13;100.00;99380.98;1727629;83;20423;-76
2022/08/06 00:58:06;;;;;;;;;;;;;;;18.13;100.00;99376.81;1725892;83;20075;-77
2022/08/06 01:00:40;;;;;;;;;;;;;;;18.12;100.00;99382.96;1727830;83;21920;-76
2022/08/06 01:03:10;;;;;;;;;;;;;;;18.10;100.00;99383.91;1726940;83;20150;-76
2022/08/06 01:05:42;;;;;;;;;;;;;;;18.08;100.00;99391.02;1727698;83;20095;-76
2022/08/06 01:08:13;;;;;;;;;;;;;;;18.05;100.00;99395.33;1727380;82;20099;-77
2022/08/06 01:10:45;;;;;;;;;;;;;;;18.04;100.00;99398.48;1705747;83;20128;-76
2022/08/06 01:13:14;;;;;;;;;;;;;;;18.03;100.00;99392.70;1727854;83;21307;-76
2022/08/06 01:15:46;;;;;;;;;;;;;;;18.01;100.00;99401.99;1727739;82;20967;-77
2022/08/06 01:18:16;;;;;;;;;;;;;;;18.00;100.00;99403.97;1727989;83;20103;-77
2022/08/06 01:20:56;;;;;;;;;;;;;;;17.99;100.00;99401.56;1707038;83;39504;-76
2022/08/06 01:23:48;;;;;;;;;;;;;;;17.97;100.00;99399.15;1727911;83;20414;-76
2022/08/06 01:26:36;;;;;;;;;;;;;;;17.96;100.00;99407.84;1727832;83;21105;-77
2022/08/06 01:29:17;;;;;;;;;;;;;;;17.92;100.00;99413.34;1730902;82;20134;-77
2022/08/06 01:32:05;;;;;;;;;;;;;;;17.90;100.00;99408.77;1726967;83;20111;-77
2022/08/06 01:34:46;;;;;;;;;;;;;;;17.86;100.00;99410.67;1727832;83;20119;-76
2022/08/06 01:37:34;;;;;;;;;;;;;;;17.85;100.00;99406.87;1714627;82;20117;-76
2022/08/06 01:40:09;;;;;;;;;;;;;;;17.82;100.00;99411.19;1698773;84;21249;-77
2022/08/06 01:42:40;;;;;;;;;;;;;;;17.80;100.00;99412.94;1697858;84;20085;-77
2022/08/06 01:45:20;;;;;;;;;;;;;;;17.76;100.00;99405.13;1697874;84;20117;-77
2022/08/06 01:47:38;;;;;;;;;;;;;;;17.72;100.00;99404.84;1674386;84;20584;-76
2022/08/06 01:50:06;;;;;;;;;;;;;;;17.68;100.00;99404.77;1698791;84;20117;-76
2022/08/06 01:52:38;;;;;;;;;;;;;;;17.66;100.00;99404.33;1701537;84;20113;-76
2022/08/06 01:55:14;;;;;;;;;;;;;;;17.64;100.00;99403.86;1698625;83;20097;-76
2022/08/06 01:57:49;;;;;;;;;;;;;;;17.64;100.00;99408.02;1698553;84;20440;-76
2022/08/06 02:00:25;;;;;;;;;;;;;;;17.62;100.00;99407.59;1701847;84;20093;-76
2022/08/06 02:02:56;;;;;;;;;;;;;;;17.63;100.00;99405.61;1678519;84;20465;-76
2022/08/06 02:05:29;;;;;;;;;;;;;;;17.61;100.00;99404.59;1701364;84;20514;-76
2022/08/06 02:08:02;;;;;;;;;;;;;;;17.59;100.00;99406.13;1677549;84;20113;-76
2022/08/06 02:10:45;;;;;;;;;;;;;;;17.57;100.00;99403.72;1702150;84;20437;-76
2022/08/06 02:13:03;;;;;;;;;;;;;;;17.53;100.00;99407.59;1697995;84;20190;-76
2022/08/06 02:15:32;;;;;;;;;;;;;;;17.48;100.00;99409.48;1698875;84;20097;-77
2022/08/06 02:18:01;;;;;;;;;;;;;;;17.46;100.00;99406.86;1698671;83;21158;-76
2022/08/06 02:20:38;;;;;;;;;;;;;;;17.43;100.00;99414.52;1711365;83;20141;-77
2022/08/06 02:23:12;;;;;;;;;;;;;;;17.39;100.00;99417.22;1702141;83;20087;-76
2022/08/06 02:25:49;;;;;;;;;;;;;;;17.38;100.00;99418.39;1696165;83;20407;-76
2022/08/06 02:28:32;;;;;;;;;;;;;;;17.35;100.00;99416.34;1730721;82;20115;-76
2022/08/06 02:30:49;;;;;;;;;;;;;;;17.33;100.00;99423.45;1724249;82;21109;-76
2022/08/06 02:33:21;;;;;;;;;;;;;;;17.30;100.00;99422.79;1727000;83;20115;-76
2022/08/06 02:36:18;;;;;;;;;;;;;;;17.24;100.00;99422.27;1727370;83;20107;-76
2022/08/06 02:38:43;;;;;;;;;;;;;;;17.19;100.00;99419.78;1723843;83;20083;-76
2022/08/06 02:41:13;;;;;;;;;;;;;;;17.15;100.00;99427.22;1727520;83;20403;-76
2022/08/06 02:43:40;;;;;;;;;;;;;;;17.10;100.00;99425.53;1727429;82;21837;-76
2022/08/06 02:46:10;;;;;;;;;;;;;;;17.06;100.00;99419.68;1727975;83;20110;-76
2022/08/06 02:48:52;;;;;;;;;;;;;;;17.02;100.00;99425.73;1727940;83;20615;-76
2022/08/06 02:51:21;;;;;;;;;;;;;;;16.98;100.00;99424.27;1731091;83;20122;-76
2022/08/06 02:54:06;;;;;;;;;;;;;;;16.94;100.00;99421.98;1727831;83;20130;-76
2022/08/06 02:56:38;;;;;;;;;;;;;;;16.92;100.00;99418.77;1727461;83;21249;-76
2022/08/06 02:59:19;;;;;;;;;;;;;;;16.93;100.00;99423.73;1727182;83;20485;-77
2022/08/06 03:01:36;;;;;;;;;;;;;;;16.96;100.00;99427.98;1723781;83;20438;-76
2022/08/06 03:04:04;;;;;;;;;;;;;;;17.00;100.00;99426.67;1727729;83;20114;-76
2022/08/06 03:06:35;;;;;;;;;;;;;;;17.06;100.00;99426.03;1727849;83;20087;-76
2022/08/06 03:09:11;;;;;;;;;;;;;;;17.11;100.00;99427.72;1730269;83;20099;-76
2022/08/06 03:11:40;;;;;;;;;;;;;;;17.13;100.00;99427.58;1706196;83;20418;-77
2022/08/06 03:14:10;;;;;;;;;;;;;;;17.14;100.00;99431.96;1727774;83;20151;-77
2022/08/06 03:16:42;;;;;;;;;;;;;;;17.16;100.00;99434.38;1707545;83;20095;-77
2022/08/06 03:19:12;;;;;;;;;;;;;;;17.14;100.00;99436.13;1730276;83;20115;-76
2022/08/06 03:21:41;;;;;;;;;;;;;;;17.15;100.00;99436.34;1727228;82;21115;-77
2022/08/06 03:24:23;;;;;;;;;;;;;;;17.13;100.00;99434.52;1727229;82;20462;-77
2022/08/06 03:26:41;;;;;;;;;;;;;;;17.15;100.00;99435.54;1723443;83;20155;-76
2022/08/06 03:29:09;;;;;;;;;;;;;;;17.18;100.00;99438.17;1730932;82;20190;-77
2022/08/06 03:31:37;;;;;;;;;;;;;;;17.24;100.00;99445.05;1751784;82;20147;-76
2022/08/06 03:34:06;;;;;;;;;;;;;;;17.30;100.00;99442.20;1753989;82;21146;-76
2022/08/06 03:36:34;;;;;;;;;;;;;;;17.36;100.00;99436.56;1754194;82;20090;-76
2022/08/06 03:39:02;;;;;;;;;;;;;;;17.42;100.00;99444.83;1754283;82;20118;-76
2022/08/06 03:41:30;;;;;;;;;;;;;;;17.47;100.00;99441.77;1754116;82;20099;-77
2022/08/06 03:44:01;;;;;;;;;;;;;;;17.53;100.00;99440.30;1754486;82;20426;-77
2022/08/06 03:46:44;;;;;;;;;;;;;;;17.60;100.00;99437.68;1747520;82;21214;-76
2022/08/06 03:49:31;;;;;;;;;;;;;;;17.68;100.00;99441.44;1754255;82;20106;-76
2022/08/06 03:51:56;;;;;;;;;;;;;;;17.77;100.00;99453.13;1753304;82;20226;-76
2022/08/06 03:54:31;;;;;;;;;;;;;;;17.87;100.00;99457.29;1751637;82;20473;-76
2022/08/06 03:57:07;;;;;;;;;;;;;;;17.94;100.00;99458.20;1728451;82;20171;-76
2022/08/06 03:59:39;;;;;;;;;;;;;;;18.03;100.00;99457.98;1744089;82;21291;-76
2022/08/06 04:02:08;;;;;;;;;;;;;;;18.10;100.00;99462.28;1754105;82;20134;-76
2022/08/06 04:04:36;;;;;;;;;;;;;;;18.18;100.00;99461.83;1753105;82;20178;-76
2022/08/06 04:07:10;;;;;;;;;;;;;;;18.23;100.00;99452.61;1754498;81;20163;-76
2022/08/06 04:09:36;;;;;;;;;;;;;;;18.28;100.00;99457.86;1753253;82;20169;-76
2022/08/06 04:12:05;;;;;;;;;;;;;;;18.35;100.00;99458.58;1753356;81;20912;-76
2022/08/06 04:14:33;;;;;;;;;;;;;;;18.41;100.00;99466.83;1753464;81;20107;-76
2022/08/06 04:17:01;;;;;;;;;;;;;;;18.44;100.00;99469.67;1754216;82;20149;-76
2022/08/06 04:19:28;;;;;;;;;;;;;;;18.47;100.00;99472.30;1754234;82;20167;-76
2022/08/06 04:21:56;;;;;;;;;;;;;;;18.49;100.00;99467.95;1754288;82;20095;-76
2022/08/06 04:24:25;;;;;;;;;;;;;;;18.54;100.00;99470.20;1754304;81;21251;-76
2022/08/06 04:26:52;;;;;;;;;;;;;;;18.56;100.00;99473.41;1754296;82;20167;-77
2022/08/06 04:29:30;;;;;;;;;;;;;;;18.56;100.00;99474.22;1754062;82;20122;-77
2022/08/06 04:32:00;;;;;;;;;;;;;;;18.58;100.00;99476.63;1727770;81;20245;-76
2022/08/06 04:34:30;;;;;;;;;;;;;;;18.60;100.00;99472.33;1726842;83;20160;-76
2022/08/06 04:36:53;;;;;;;;;;;;;;;18.66;100.00;99473.63;1726303;83;21746;-76
2022/08/06 04:39:36;;;;;;;;;;;;;;;18.72;100.00;99476.90;1727206;83;20130;-76
2022/08/06 04:41:55;;;;;;;;;;;;;;;18.76;100.00;99481.94;1714618;83;20434;-77
2022/08/06 04:44:21;;;;;;;;;;;;;;;18.82;100.00;99482.42;1704674;83;20109;-76
2022/08/06 04:46:59;;;;;;;;;;;;;;;18.88;100.00;99487.30;1698389;84;20153;-76
2022/08/06 04:49:29;;;;;;;;;;;;;;;18.96;100.00;99488.23;1679389;84;20688;-76
2022/08/06 04:51:57;;;;;;;;;;;;;;;19.04;100.00;99487.96;1697840;84;20145;-76
2022/08/06 04:54:26;;;;;;;;;;;;;;;19.12;100.00;99495.22;1698132;84;20133;-77
2022/08/06 04:56:54;;;;;;;;;;;;;;;19.22;100.00;99490.99;1698385;84;20146;-75
2022/08/06 04:59:30;;;;;;;;;;;;;;;19.28;100.00;99487.30;1701425;84;20487;-79
2022/08/06 05:01:55;;;;;;;;;;;;;;;19.34;100.00;99487.19;1701313;83;21214;-78
2022/08/06 05:04:37;;;;;;;;;;;;;;;19.44;100.00;99493.50;1714751;83;20209;-76
2022/08/06 05:07:13;;;;;;;;;;;;;;;19.55;100.00;99495.08;1697851;84;20125;-76
2022/08/06 05:09:55;;;;;;;;;;;;;;;19.64;100.00;99496.37;1698381;84;20141;-75
2022/08/06 05:12:20;;;;;;;;;;;;;;;19.74;100.00;99492.92;1692120;84;20180;-74
2022/08/06 05:15:08;;;;;;;;;;;;;;;19.84;100.00;99494.83;1697604;84;21187;-73
2022/08/06 05:17:44;;;;;;;;;;;;;;;19.93;100.00;99495.34;1710917;83;20112;-72
2022/08/06 05:20:20;;;;;;;;;;;;;;;20.09;100.00;99490.37;1698308;84;20421;-76
2022/08/06 05:22:51;;;;;;;;;;;;;;;20.23;100.00;99498.05;1701516;84;20105;-75
2022/08/06 05:25:18;;;;;;;;;;;;;;;20.31;100.00;99496.36;1702252;83;20168;-75
2022/08/06 05:27:47;;;;;;;;;;;;;;;20.41;100.00;99498.48;1698621;83;20881;-76
2022/08/06 05:32:53;;;;;;;;;;;;;;;20.59;100.00;99496.47;1731010;82;20094;-75
2022/08/06 05:35:26;;;;;;;;;;;;;;;20.67;100.00;99492.56;1753995;82;20122;-80
2022/08/06 05:37:52;;;;;;;;;;;;;;;20.76;100.00;99495.84;1753608;81;20206;-81
2022/08/06 05:40:22;;;;;;;;;;;;;;;20.86;100.00;99494.30;1750161;82;21159;-77
2022/08/06 05:42:55;;;;;;;;;;;;;;;20.97;100.00;99491.80;1754019;82;20166;-75
2022/08/06 05:45:21;;;;;;;;;;;;;;;21.12;100.00;99497.50;1753440;82;20099;-77
2022/08/06 05:47:47;;;;;;;;;;;;;;;21.19;100.00;99491.37;1753586;82;20163;-78
2022/08/06 05:50:20;;;;;;;;;;;;;;;21.25;100.00;99487.66;1754421;82;20198;-75
2022/08/06 05:53:01;;;;;;;;;;;;;;;21.33;100.00;99492.89;1754097;82;21940;-75
2022/08/06 05:55:48;;;;;;;;;;;;;;;21.42;100.00;99484.95;1753093;82;20163;-74
2022/08/06 05:58:22;;;;;;;;;;;;;;;21.52;100.00;99486.20;1753607;82;20129;-80
2022/08/06 06:00:48;;;;;;;;;;;;;;;21.68;100.00;99486.69;1754304;82;20450;-80
2022/08/06 06:03:15;;;;;;;;;;;;;;;21.81;100.00;99486.34;1754316;82;20091;-72
2022/08/06 06:05:42;;;;;;;;;;;;;;;21.88;100.00;99486.38;1754569;82;21770;-70
2022/08/06 06:08:09;;;;;;;;;;;;;;;21.93;100.00;99479.81;1754043;82;20122;-73
2022/08/06 06:10:38;;;;;;;;;;;;;;;22.00;100.00;99482.61;1752359;82;20171;-74
2022/08/06 06:13:05;;;;;;;;;;;;;;;22.08;100.00;99477.27;1753615;82;20433;-74
2022/08/06 06:15:35;;;;;;;;;;;;;;;22.17;100.00;99479.70;1754087;82;20143;-72
2022/08/06 06:18:08;;;;;;;;;;;;;;;22.27;100.00;99479.52;1754148;82;21148;-72
2022/08/06 06:20:50;;;;;;;;;;;;;;;22.39;100.00;99481.35;1754403;82;20175;-73
2022/08/06 06:23:30;;;;;;;;;;;;;;;22.52;100.00;99468.39;1694008;83;20410;-69
2022/08/06 06:26:15;;;;;;;;;;;;;;;22.60;100.00;99466.57;1754257;82;20095;-71
2022/08/06 06:29:00;;;;;;;;;;;;;;;22.66;100.00;99464.17;1754094;82;20198;-79
2022/08/06 06:31:30;;;;;;;;;;;;;;;22.74;100.00;99468.58;1723253;82;21815;-74
2022/08/06 06:34:12;;;;;;;;;;;;;;;22.88;100.00;99466.41;1727251;83;20189;-71
2022/08/06 06:36:54;;;;;;;;;;;;;;;23.02;99.61;99471.41;1726258;83;20118;-72
2022/08/06 06:39:39;;;;;;;;;;;;;;;23.14;98.64;99474.97;1727246;83;20118;-72
2022/08/06 06:42:19;;;;;;;;;;;;;;;23.27;97.54;99469.95;1726408;82;20144;-75
2022/08/06 06:45:04;;;;;;;;;;;;;;;23.41;94.51;99472.52;1714776;83;22583;-77
2022/08/06 06:47:37;;;;;;;;;;;;;;;23.50;93.34;99475.10;1726823;83;20422;-79
2022/08/06 06:50:18;;;;;;;;;;;;;;;23.62;93.43;99469.70;1726609;83;20174;-71
2022/08/06 06:52:46;;;;;;;;;;;;;;;23.71;91.45;99470.84;1727367;83;20447;-73
2022/08/06 06:55:34;;;;;;;;;;;;;;;23.80;90.92;99475.21;1727316;83;20171;-72
2022/08/06 06:58:07;;;;;;;;;;;;;;;23.89;90.63;99472.17;1706852;83;21096;-72
2022/08/06 07:00:33;;;;;;;;;;;;;;;23.99;89.07;99468.52;1727109;83;20139;-72
2022/08/06 07:03:01;;;;;;;;;;;;;;;24.09;88.80;99468.27;1727471;82;20449;-72
2022/08/06 07:05:28;;;;;;;;;;;;;;;24.21;87.86;99465.61;1726876;83;20470;-75
2022/08/06 07:07:55;;;;;;;;;;;;;;;24.34;84.25;99470.34;1727342;83;20171;-73
2022/08/06 07:10:22;;;;;;;;;;;;;;;24.44;84.08;99463.06;1727314;83;21991;-79
2022/08/06 07:12:48;;;;;;;;;;;;;;;24.53;84.17;99456.98;1717399;83;20468;-84
2022/08/06 07:15:18;;;;;;;;;;;;;;;24.60;83.73;99455.53;1687486;83;20425;-78
2022/08/06 07:17:47;;;;;;;;;;;;;;;24.68;81.68;99458.48;1698484;83;20169;-76
2022/08/06 07:20:19;;;;;;;;;;;;;;;24.78;82.23;99451.98;1698438;84;20185;-73
2022/08/06 07:22:49;;;;;;;;;;;;;;;24.86;81.43;99457.70;1698211;84;21226;-74
2022/08/06 07:25:20;;;;;;;;;;;;;;;24.98;82.00;99450.20;1700922;84;20121;-81
2022/08/06 07:28:00;;;;;;;;;;;;;;;25.12;78.04;99455.50;1698151;84;20145;-76
2022/08/06 07:30:35;;;;;;;;;;;;;;;25.17;75.19;99454.45;1698505;83;20133;-74
2022/08/06 07:33:02;;;;;;;;;;;;;;;25.24;78.03;99456.39;1698038;84;20169;-80
2022/08/06 07:35:32;;;;;;;;;;;;;;;25.37;77.20;99460.87;1698226;84;21115;-80
2022/08/06 07:38:22;;;;;;;;;;;;;;;25.48;76.31;99458.72;1678426;84;20569;-86
2022/08/06 07:40:57;;;;;;;;;;;;;;;25.56;77.04;99456.81;1674621;84;20133;-79
2022/08/06 07:43:27;;;;;;;;;;;;;;;25.71;76.84;99461.69;1700998;84;20405;-79
2022/08/06 07:46:02;;;;;;;;;;;;;;;25.83;74.05;99461.75;1700260;84;20121;-77
2022/08/06 07:48:32;;;;;;;;;;;;;;;25.92;72.55;99451.59;1697692;84;21812;-75
2022/08/06 07:51:14;;;;;;;;;;;;;;;26.00;72.01;99453.67;1698322;84;20495;-74
2022/08/06 07:53:33;;;;;;;;;;;;;;;26.07;71.98;99446.55;1690993;84;20144;-74
2022/08/06 07:56:06;;;;;;;;;;;;;;;26.15;72.60;99443.82;1697542;84;20132;-79
2022/08/06 07:58:38;;;;;;;;;;;;;;;26.30;72.52;99438.17;1698122;83;20121;-75
2022/08/06 08:01:07;;;;;;;;;;;;;;;26.41;70.01;99443.68;1694771;83;21173;-76
2022/08/06 08:06:37;;;;;;;;;;;;;;;26.69;71.14;99438.19;1686857;85;20126;-77
2022/08/06 08:09:21;;;;;;;;;;;;;;;26.92;70.58;99446.65;1691287;83;20387;-78
2022/08/06 08:11:46;;;;;;;;;;;;;;;27.17;68.94;99444.00;1697777;83;20241;-78
2022/08/06 08:14:16;;;;;;;;;;;;;;;27.46;70.84;99442.86;1698279;83;21568;-81
2022/08/06 08:16:44;;;;;;;;;;;;;;;27.77;66.94;99439.22;1677658;84;20150;-79
2022/08/06 08:22:17;;;;;;;;;;;;;;;27.97;64.79;99437.17;1684450;84;20228;-92
2022/08/06 08:24:51;;;;;;;;;;;;;;;28.19;66.76;99432.66;1697746;84;20178;-78
2022/08/06 08:27:27;;;;;;;;;;;;;;;28.52;65.78;99436.94;1687884;83;20175;-85
2022/08/06 08:30:06;;;;;;;;;;;;;;;28.82;63.07;99438.04;1715681;83;20129;-81
2022/08/06 08:32:32;;;;;;;;;;;;;;;29.00;60.69;99442.41;1687765;83;20126;-78
2022/08/06 08:35:01;;;;;;;;;;;;;;;29.13;61.33;99444.70;1688403;85;20134;-79
2022/08/06 08:37:34;;;;;;;;;;;;;;;29.28;60.56;99441.67;1688585;84;20130;-73
2022/08/06 08:40:00;;;;;;;;;;;;;;;29.42;59.38;99437.06;1688031;84;21188;-79
2022/08/06 08:42:33;;;;;;;;;;;;;;;29.42;56.77;99435.66;1687177;84;20468;-77
2022/08/06 08:45:05;;;;;;;;;;;;;;;29.29;57.92;99442.46;1687955;84;20130;-75
2022/08/06 08:47:46;;;;;;;;;;;;;;;29.25;59.19;99441.94;1668221;85;20149;-78
2022/08/06 08:50:12;;;;;;;;;;;;;;;29.36;58.11;99438.82;1687864;85;20555;-76
2022/08/06 08:52:44;;;;;;;;;;;;;;;29.53;59.32;99446.02;1688443;84;21914;-75
2022/08/06 08:55:17;;;;;;;;;;;;;;;29.70;59.25;99453.83;1660252;85;20226;-77
2022/08/06 08:57:42;;;;;;;;;;;;;;;29.65;59.49;99454.38;1685463;84;20085;-76
2022/08/06 09:00:10;;;;;;;;;;;;;;;29.58;59.87;99456.78;1732961;81;20162;-76
2022/08/06 09:02:46;;;;;;;;;;;;;;;29.67;59.46;99455.34;1732195;81;20531;-76
2022/08/06 09:05:14;;;;;;;;;;;;;;;29.87;59.24;99454.56;1731626;81;21199;-72
2022/08/06 09:07:47;;;;;;;;;;;;;;;30.09;57.24;99449.85;1712833;83;20128;-83
2022/08/06 09:10:19;;;;;;;;;;;;;;;30.18;55.98;99451.39;1719050;82;20125;-87
2022/08/06 09:12:50;;;;;;;;;;;;;;;30.21;57.41;99449.70;1685506;84;20184;-83
2022/08/06 09:15:26;;;;;;;;;;;;;;;30.34;55.34;99452.55;1694589;83;20134;-72
2022/08/06 09:18:05;;;;;;;;;;;;;;;30.46;56.44;99454.59;1736129;81;20171;-74
2022/08/06 09:20:42;;;;;;;;;;;;;;;30.58;55.06;99451.61;1707756;83;20472;-73
2022/08/06 09:23:15;;;;;;;;;;;;;;;30.59;55.01;99451.16;1703141;84;20480;-73
2022/08/06 09:25:54;;;;;;;;;;;;;;;30.61;55.90;99457.16;1703632;84;20215;-74
2022/08/06 09:28:49;;;;;;;;;;;;;;;30.64;55.57;99449.14;1703682;84;20176;-73
2022/08/06 09:31:17;;;;;;;;;;;;;;;30.74;55.16;99446.59;1685172;83;21206;-86
2022/08/06 09:34:00;;;;;;;;;;;;;;;30.98;55.92;99447.63;1717212;83;20136;-83
2022/08/06 09:36:27;;;;;;;;;;;;;;;31.16;53.11;99452.88;1715082;82;20164;-86
2022/08/06 09:38:57;;;;;;;;;;;;;;;31.28;52.62;99460.36;1686078;85;20250;-84
2022/08/06 09:41:27;;;;;;;;;;;;;;;31.34;51.74;99455.70;1690045;84;20175;-78
2022/08/06 09:43:59;;;;;;;;;;;;;;;31.37;51.77;99448.48;1689993;85;21823;-79
2022/08/06 09:46:39;;;;;;;;;;;;;;;31.38;52.46;99454.31;1697842;83;20229;-81
2022/08/06 09:49:10;;;;;;;;;;;;;;;31.39;52.68;99454.48;1697716;84;20174;-78
2022/08/06 09:51:43;;;;;;;;;;;;;;;31.39;50.79;99448.02;1697930;84;20212;-76
2022/08/06 09:54:22;;;;;;;;;;;;;;;31.41;53.43;99445.52;1698216;84;20150;-83
2022/08/06 09:57:01;;;;;;;;;;;;;;;31.67;53.08;99450.45;1698121;84;21550;-86
2022/08/06 09:59:45;;;;;;;;;;;;;;;31.75;50.58;99435.56;1697777;84;20136;-77
2022/08/06 10:02:17;;;;;;;;;;;;;;;31.75;50.81;99433.36;1698282;84;20416;-77
2022/08/06 10:04:45;;;;;;;;;;;;;;;31.81;51.72;99435.73;1707736;83;20160;-77
2022/08/06 10:07:12;;;;;;;;;;;;;;;31.94;51.94;99441.33;1727153;83;20143;-76
2022/08/06 10:09:53;;;;;;;;;;;;;;;32.00;51.87;99436.02;1706654;83;21108;-77
2022/08/06 10:12:23;;;;;;;;;;;;;;;32.16;51.81;99447.15;1698050;84;20169;-75
2022/08/06 10:14:52;;;;;;;;;;;;;;;32.36;51.62;99443.94;1698164;84;20134;-76
2022/08/06 10:17:21;;;;;;;;;;;;;;;32.58;49.45;99441.02;1678004;84;20113;-75
2022/08/06 10:20:10;;;;;;;;;;;;;;;32.75;48.46;99433.02;1698130;84;20201;-75
2022/08/06 10:22:49;;;;;;;;;;;;;;;32.90;48.35;99432.62;1698168;84;21252;-75
2022/08/06 10:25:20;;;;;;;;;;;;;;;32.96;46.05;99439.87;1698141;83;20125;-78
2022/08/06 10:27:51;;;;;;;;;;;;;;;32.89;47.02;99441.62;1699053;83;20504;-82
2022/08/06 10:30:20;;;;;;;;;;;;;;;32.89;46.85;99441.62;1714559;83;20115;-80
2022/08/06 10:32:56;;;;;;;;;;;;;;;32.86;47.22;99449.66;1725777;83;20213;-81
2022/08/06 10:35:29;;;;;;;;;;;;;;;32.77;48.83;99437.64;1726076;81;21978;-82
2022/08/06 10:38:06;;;;;;;;;;;;;;;32.77;47.27;99444.12;1709107;82;20129;-81
2022/08/06 10:40:36;;;;;;;;;;;;;;;32.85;47.93;99436.08;1700622;83;20199;-84
2022/08/06 10:43:03;;;;;;;;;;;;;;;32.94;46.38;99440.97;1697526;84;20132;-84
2022/08/06 10:45:30;;;;;;;;;;;;;;;32.64;46.40;99451.14;1704781;83;20575;-82
2022/08/06 10:48:04;;;;;;;;;;;;;;;32.29;48.69;99445.66;1723938;83;20138;-86
2022/08/06 10:50:37;;;;;;;;;;;;;;;32.29;49.56;99442.03;1727180;83;20084;-80
2022/08/06 10:53:10;;;;;;;;;;;;;;;32.42;48.77;99447.75;1727537;81;20115;-84
2022/08/06 10:55:40;;;;;;;;;;;;;;;32.48;44.60;99445.09;1727029;83;20110;-81
2022/08/06 10:58:11;;;;;;;;;;;;;;;32.45;45.60;99446.81;1727148;83;20172;-83
2022/08/06 11:00:40;;;;;;;;;;;;;;;32.52;44.97;99443.52;1727398;81;21245;-81
2022/08/06 11:03:11;;;;;;;;;;;;;;;32.68;46.61;99442.64;1727222;83;20103;-78
2022/08/06 11:05:38;;;;;;;;;;;;;;;32.91;45.33;99440.52;1727224;83;20444;-77
2022/08/06 11:08:29;;;;;;;;;;;;;;;32.71;46.86;99438.86;1727367;83;20203;-86
2022/08/06 11:11:03;;;;;;;;;;;;;;;32.29;46.35;99441.41;1704371;83;20145;-83
2022/08/06 11:13:33;;;;;;;;;;;;;;;31.92;48.16;99443.22;1697748;83;21153;-83
2022/08/06 11:15:59;;;;;;;;;;;;;;;31.89;47.20;99435.63;1698083;83;20461;-87
2022/08/06 11:18:25;;;;;;;;;;;;;;;31.90;46.38;99442.09;1698546;83;20156;-84
2022/08/06 11:20:59;;;;;;;;;;;;;;;31.58;48.39;99436.19;1678330;84;20179;-82
2022/08/06 11:23:26;;;;;;;;;;;;;;;31.10;49.52;99439.72;1698085;83;20465;-82
2022/08/06 11:26:01;;;;;;;;;;;;;;;30.78;50.95;99444.42;1698426;84;21130;-83
2022/08/06 11:28:33;;;;;;;;;;;;;;;30.71;52.70;99453.78;1697750;83;20117;-85
2022/08/06 11:31:01;;;;;;;;;;;;;;;31.03;52.73;99445.63;1698226;83;20138;-82
2022/08/06 11:33:35;;;;;;;;;;;;;;;31.56;49.76;99441.53;1707353;82;20197;-84
2022/08/06 11:36:09;;;;;;;;;;;;;;;31.99;51.12;99448.62;1712049;83;20180;-78
2022/08/06 11:38:47;;;;;;;;;;;;;;;32.46;48.52;99439.88;1711951;82;20122;-80
2022/08/06 11:41:25;;;;;;;;;;;;;;;32.85;47.90;99445.23;1711722;84;20133;-79
2022/08/06 11:43:56;;;;;;;;;;;;;;;32.78;47.00;99447.75;1711661;84;20136;-79
2022/08/06 11:46:37;;;;;;;;;;;;;;;32.39;46.63;99443.00;1710901;84;20452;-84
2022/08/06 11:49:15;;;;;;;;;;;;;;;31.91;47.91;99453.61;1711765;82;20472;-75
2022/08/06 11:51:58;;;;;;;;;;;;;;;31.40;49.06;99449.60;1719963;83;22172;-83
2022/08/06 11:54:45;;;;;;;;;;;;;;;31.05;49.51;99453.05;1694539;83;20152;-81
2022/08/06 11:57:18;;;;;;;;;;;;;;;30.81;49.92;99447.77;1722048;83;20463;-81
2022/08/06 11:59:47;;;;;;;;;;;;;;;30.88;47.71;99441.86;1721878;83;20146;-88
2022/08/06 12:02:16;;;;;;;;;;;;;;;31.29;48.43;99434.38;1721981;83;20189;-81
2022/08/06 12:04:44;;;;;;;;;;;;;;;31.86;46.23;99440.81;1721870;83;21165;-81
2022/08/06 12:07:24;;;;;;;;;;;;;;;32.30;45.40;99438.73;1722312;83;20184;-79
2022/08/06 12:09:59;;;;;;;;;;;;;;;32.47;46.92;99430.72;1721754;83;20137;-81
2022/08/06 12:12:37;;;;;;;;;;;;;;;32.37;44.98;99431.31;1722286;83;20448;-82
2022/08/06 12:15:07;;;;;;;;;;;;;;;32.10;46.32;99434.02;1721804;83;20165;-77
2022/08/06 12:17:35;;;;;;;;;;;;;;;31.69;46.68;99425.27;1718329;83;21816;-79
2022/08/06 12:20:03;;;;;;;;;;;;;;;31.29;46.51;99422.25;1721591;83;20121;-82
2022/08/06 12:22:31;;;;;;;;;;;;;;;31.15;48.43;99423.58;1721968;83;20153;-81
2022/08/06 12:25:01;;;;;;;;;;;;;;;31.30;48.08;99421.79;1721898;83;20184;-84
2022/08/06 12:27:32;;;;;;;;;;;;;;;31.65;47.45;99411.81;1721726;83;20169;-75
2022/08/06 12:29:59;;;;;;;;;;;;;;;32.02;46.43;99412.21;1722057;83;21174;-78
2022/08/06 12:32:35;;;;;;;;;;;;;;;32.15;45.80;99418.59;1721605;83;20163;-77
2022/08/06 12:35:14;;;;;;;;;;;;;;;31.95;45.31;99425.26;1687183;84;20444;-79
2022/08/06 12:37:44;;;;;;;;;;;;;;;31.49;46.61;99420.69;1702023;83;20152;-78
2022/08/06 12:40:27;;;;;;;;;;;;;;;30.99;46.94;99415.99;1700462;84;20176;-73
2022/08/06 12:42:55;;;;;;;;;;;;;;;30.47;47.47;99421.56;1702363;83;21392;-73
2022/08/06 12:45:25;;;;;;;;;;;;;;;30.32;49.62;99419.64;1702377;83;20196;-76
2022/08/06 12:48:17;;;;;;;;;;;;;;;30.58;50.16;99422.66;1683294;84;20097;-82
2022/08/06 12:50:44;;;;;;;;;;;;;;;31.08;48.56;99410.41;1690921;84;20163;-80
2022/08/06 12:53:16;;;;;;;;;;;;;;;31.53;47.26;99401.48;1675522;84;20481;-78
2022/08/06 12:55:50;;;;;;;;;;;;;;;31.90;43.35;99409.45;1693698;84;21270;-76
2022/08/06 12:58:19;;;;;;;;;;;;;;;32.05;44.22;99407.65;1703339;83;20207;-77
2022/08/06 13:00:49;;;;;;;;;;;;;;;32.32;45.28;99412.70;1685480;83;20156;-76
2022/08/06 13:03:17;;;;;;;;;;;;;;;32.65;45.03;99407.26;1703184;84;20177;-76
2022/08/06 13:05:47;;;;;;;;;;;;;;;32.69;44.14;99416.43;1662900;84;20136;-75
2022/08/06 13:08:25;;;;;;;;;;;;;;;32.37;44.48;99419.16;1678720;84;20088;-78
2022/08/06 13:10:56;;;;;;;;;;;;;;;31.92;44.49;99420.51;1682648;84;20120;-74
2022/08/06 13:13:34;;;;;;;;;;;;;;;31.48;45.56;99413.43;1657224;85;20130;-80
2022/08/06 13:16:14;;;;;;;;;;;;;;;31.12;46.02;99418.16;1688476;84;20149;-74